createdAt,value
2018-08-18T00:00:23.766Z,4.40
2018-08-18T00:02:52.922Z,4.63
2018-08-18T00:05:22.051Z,4.17
2018-08-18T00:07:51.264Z,4.77
2018-08-18T00:10:22.833Z,5.90
2018-08-18T00:12:52.290Z,5.63
2018-08-18T00:15:21.403Z,5.10
2018-08-18T00:17:50.539Z,5.07
2018-08-18T00:20:24.718Z,5.67
2018-08-18T00:22:53.850Z,5.23
2018-08-18T00:25:22.949Z,5.70
2018-08-18T00:27:52.107Z,6.90
2018-08-18T00:30:27.657Z,7.17
2018-08-18T00:32:56.855Z,7.33
2018-08-18T00:35:25.939Z,7.30
2018-08-18T00:37:55.032Z,6.60
2018-08-18T00:40:24.209Z,7.57
2018-08-18T00:42:53.389Z,6.53
2018-08-18T00:45:22.474Z,6.97
2018-08-18T00:47:52.257Z,7.00
2018-08-18T00:50:37.833Z,7.10
2018-08-18T00:53:08.886Z,6.60
2018-08-18T00:55:38.348Z,7.87
2018-08-18T00:58:16.467Z,7.60
2018-08-18T01:00:49.675Z,7.40
2018-08-18T01:03:18.792Z,7.30
2018-08-18T01:05:47.949Z,7.30
2018-08-18T01:08:17.068Z,8.80
2018-08-18T01:10:46.263Z,7.27
2018-08-18T01:13:15.480Z,8.63
2018-08-18T01:15:44.709Z,8.50
2018-08-18T01:18:13.745Z,9.57
2018-08-18T01:20:42.865Z,10.40
2018-08-18T01:23:12.031Z,10.23
2018-08-18T01:25:41.183Z,11.90
2018-08-18T01:28:10.353Z,12.77
2018-08-18T01:30:39.506Z,12.70
2018-08-18T01:33:08.689Z,11.73
2018-08-18T01:35:37.867Z,11.50
2018-08-18T01:38:07.079Z,12.20
2018-08-18T01:40:36.209Z,11.73
2018-08-18T01:43:05.380Z,12.90
2018-08-18T01:45:34.525Z,11.70
2018-08-18T01:48:03.640Z,13.40
2018-08-18T01:50:32.778Z,11.90
2018-08-18T01:53:01.933Z,13.57
2018-08-18T01:55:31.024Z,12.33
2018-08-18T01:58:00.158Z,13.17
2018-08-18T02:00:29.299Z,14.67
2018-08-18T02:02:58.454Z,11.70
2018-08-18T02:05:27.612Z,12.50
2018-08-18T02:07:56.819Z,12.70
2018-08-18T02:10:26.017Z,13.63
2018-08-18T02:13:03.894Z,12.90
2018-08-18T02:15:33.182Z,14.17
2018-08-18T02:18:02.320Z,13.10
2018-08-18T02:20:31.441Z,14.30
2018-08-18T02:23:00.594Z,13.60
2018-08-18T02:25:29.805Z,14.50
2018-08-18T02:27:58.918Z,13.60
2018-08-18T02:30:28.074Z,14.90
2018-08-18T02:32:57.261Z,15.30
2018-08-18T02:35:26.422Z,14.40
2018-08-18T02:37:56.580Z,14.77
2018-08-18T02:40:25.803Z,15.77
2018-08-18T02:42:55.036Z,15.50
2018-08-18T02:45:24.215Z,14.20
2018-08-18T02:48:13.153Z,14.97
2018-08-18T02:50:48.579Z,14.40
2018-08-18T02:53:28.062Z,15.53
2018-08-18T02:55:57.523Z,15.67
2018-08-18T02:58:26.663Z,13.80
2018-08-18T03:00:55.851Z,17.20
2018-08-18T03:03:24.993Z,14.63
2018-08-18T03:05:56.568Z,14.40
2018-08-18T03:08:25.757Z,14.77
2018-08-18T03:10:54.866Z,14.40
2018-08-18T03:13:27.107Z,14.30
2018-08-18T03:15:57.611Z,12.80
2018-08-18T03:18:51.529Z,13.60
2018-08-18T03:21:26.483Z,12.83
2018-08-18T03:24:29.562Z,11.20
2018-08-18T03:26:59.124Z,11.73
2018-08-18T03:29:29.535Z,12.83
2018-08-18T03:31:58.771Z,13.90
2018-08-18T03:34:27.947Z,12.20
2018-08-18T03:36:57.183Z,11.57
2018-08-18T03:39:31.732Z,14.07
2018-08-18T03:42:02.232Z,13.47
2018-08-18T03:44:31.375Z,13.23
2018-08-18T03:47:00.569Z,12.87
2018-08-18T03:49:29.785Z,12.33
2018-08-18T03:51:58.998Z,12.33
2018-08-18T03:54:28.190Z,12.63
2018-08-18T03:56:57.384Z,12.20
2018-08-18T03:59:26.552Z,12.20
2018-08-18T04:01:57.833Z,12.37
2018-08-18T04:04:28.231Z,13.10
2018-08-18T04:06:59.198Z,12.13
2018-08-18T04:09:29.530Z,12.03
2018-08-18T04:11:59.428Z,11.70
2018-08-18T04:14:30.641Z,12.53
2018-08-18T04:16:59.812Z,13.90
2018-08-18T04:19:28.890Z,13.57
2018-08-18T04:21:58.172Z,14.10
2018-08-18T04:24:36.419Z,12.60
2018-08-18T04:27:05.522Z,12.97
2018-08-18T04:29:34.675Z,13.50
2018-08-18T04:32:04.102Z,11.50
2018-08-18T04:34:33.283Z,11.90
2018-08-18T04:37:02.449Z,10.20
2018-08-18T04:39:31.569Z,11.97
2018-08-18T04:42:00.762Z,12.10
2018-08-18T04:44:29.901Z,13.53
2018-08-18T04:46:59.087Z,11.33
2018-08-18T04:49:28.231Z,10.70
2018-08-18T04:51:57.385Z,10.90
2018-08-18T04:54:26.487Z,9.57
2018-08-18T04:56:55.594Z,8.40
2018-08-18T04:59:24.664Z,8.57
2018-08-18T05:01:53.940Z,9.57
2018-08-18T05:04:23.082Z,8.53
2018-08-18T05:06:52.206Z,10.00
2018-08-18T05:09:21.341Z,10.80
2018-08-18T05:11:50.474Z,9.33
2018-08-18T05:14:19.605Z,9.30
2018-08-18T05:16:48.756Z,8.50
2018-08-18T05:19:18.043Z,8.90
2018-08-18T05:21:48.690Z,8.93
2018-08-18T05:24:25.418Z,8.20
2018-08-18T05:26:55.566Z,9.50
2018-08-18T05:29:24.648Z,9.30
2018-08-18T05:31:53.744Z,8.70
2018-08-18T05:34:22.851Z,9.30
2018-08-18T05:36:51.987Z,8.50
2018-08-18T05:39:21.130Z,7.93
2018-08-18T05:41:50.264Z,8.13
2018-08-18T05:44:19.366Z,9.00
2018-08-18T05:46:48.546Z,7.60
2018-08-18T05:49:17.733Z,8.10
2018-08-18T05:51:49.396Z,8.20
2018-08-18T05:54:22.938Z,7.43
2018-08-18T05:56:52.057Z,8.10
2018-08-18T05:59:21.178Z,7.27
2018-08-18T06:01:50.310Z,7.33
2018-08-18T06:04:20.684Z,7.30
2018-08-18T06:06:50.593Z,6.73
2018-08-18T06:09:20.825Z,7.07
2018-08-18T06:11:50.046Z,6.33
2018-08-18T06:14:19.555Z,5.73
2018-08-18T06:16:48.708Z,6.10
2018-08-18T06:19:17.905Z,6.70
2018-08-18T06:21:47.075Z,6.83
2018-08-18T06:24:16.178Z,6.10
2018-08-18T06:26:45.366Z,6.53
2018-08-18T06:29:15.789Z,7.30
2018-08-18T06:32:01.388Z,5.83
2018-08-18T06:34:32.130Z,6.23
2018-08-18T06:37:02.018Z,6.53
2018-08-18T06:40:02.197Z,6.77
2018-08-18T06:42:38.318Z,6.37
2018-08-18T06:45:11.525Z,6.37
2018-08-18T06:47:40.877Z,6.10
2018-08-18T06:50:13.041Z,5.60
2018-08-18T06:52:42.491Z,5.27
2018-08-18T06:55:18.137Z,5.33
2018-08-18T06:57:50.185Z,5.47
2018-08-18T07:00:23.806Z,4.93
2018-08-18T07:02:52.950Z,5.57
2018-08-18T07:05:22.059Z,5.27
2018-08-18T07:07:51.268Z,4.63
2018-08-18T07:10:36.273Z,4.40
2018-08-18T07:13:10.019Z,5.60
2018-08-18T07:15:41.437Z,4.90
2018-08-18T07:18:11.699Z,5.43
2018-08-18T07:20:41.061Z,5.97
2018-08-18T07:23:10.223Z,5.23
2018-08-18T07:25:46.318Z,5.07
2018-08-18T07:28:15.401Z,4.87
2018-08-18T07:30:44.521Z,5.00
2018-08-18T07:33:13.651Z,5.17
2018-08-18T07:35:42.792Z,5.27
2018-08-18T07:38:11.879Z,5.73
2018-08-18T07:40:43.137Z,4.90
2018-08-18T07:43:30.783Z,5.23
2018-08-18T07:46:01.449Z,4.47
2018-08-18T07:48:30.679Z,5.50
2018-08-18T07:50:59.755Z,6.00
2018-08-18T07:53:29.095Z,5.93
2018-08-18T07:55:58.184Z,6.47
2018-08-18T07:58:27.299Z,5.30
2018-08-18T08:00:58.727Z,5.50
2018-08-18T08:03:27.833Z,6.00
2018-08-18T08:05:56.969Z,6.13
2018-08-18T08:08:33.368Z,7.03
2018-08-18T08:11:08.047Z,5.47
2018-08-18T08:13:37.711Z,6.43
2018-08-18T08:16:06.863Z,8.37
2018-08-18T08:18:35.963Z,7.63
2018-08-18T08:21:05.111Z,8.37
2018-08-18T08:23:34.202Z,7.87
2018-08-18T08:26:03.326Z,7.80
2018-08-18T08:28:32.417Z,9.27
2018-08-18T08:31:01.550Z,8.43
2018-08-18T08:33:39.351Z,8.50
2018-08-18T08:36:13.086Z,9.13
2018-08-18T08:38:57.383Z,8.37
2018-08-18T08:41:29.758Z,8.60
2018-08-18T08:43:58.838Z,7.60
2018-08-18T08:46:27.947Z,8.07
2018-08-18T08:49:02.814Z,6.50
2018-08-18T08:51:31.960Z,6.07
2018-08-18T08:54:01.384Z,6.87
2018-08-18T08:56:44.952Z,6.17
2018-08-18T08:59:14.361Z,4.60
2018-08-18T09:01:43.597Z,6.00
2018-08-18T09:04:12.686Z,5.73
2018-08-18T09:06:45.702Z,5.03
2018-08-18T09:09:15.909Z,5.20
2018-08-18T09:11:45.100Z,5.30
2018-08-18T09:14:14.191Z,5.23
2018-08-18T09:16:43.367Z,5.30
2018-08-18T09:19:12.725Z,5.17
2018-08-18T09:21:49.771Z,5.50
2018-08-18T09:24:19.188Z,4.97
2018-08-18T09:26:52.217Z,5.63
2018-08-18T09:29:21.735Z,5.90
2018-08-18T09:31:50.871Z,5.33
2018-08-18T09:34:19.982Z,6.47
2018-08-18T09:36:49.346Z,6.10
2018-08-18T09:39:25.571Z,6.13
2018-08-18T09:41:54.686Z,4.70
2018-08-18T09:44:31.170Z,5.67
2018-08-18T09:47:00.305Z,4.40
2018-08-18T09:49:30.605Z,3.33
2018-08-18T09:52:00.528Z,4.50
2018-08-18T09:54:29.905Z,4.30
2018-08-18T09:56:59.711Z,3.20
2018-08-18T09:59:29.452Z,3.50
2018-08-18T10:01:58.578Z,2.97
2018-08-18T10:04:27.722Z,2.30
2018-08-18T10:06:56.923Z,2.30
2018-08-18T10:09:26.042Z,2.13
2018-08-18T10:11:55.216Z,2.53
2018-08-18T10:14:24.343Z,2.37
2018-08-18T10:16:53.461Z,2.00
2018-08-18T10:19:22.561Z,1.60
2018-08-18T10:21:51.658Z,1.40
2018-08-18T10:24:20.796Z,1.50
2018-08-18T10:27:04.702Z,2.00
2018-08-18T10:29:33.835Z,1.60
2018-08-18T10:32:02.971Z,1.70
2018-08-18T10:34:33.399Z,1.63
2018-08-18T10:37:04.928Z,1.40
2018-08-18T10:39:34.721Z,1.40
2018-08-18T10:42:17.414Z,1.17
2018-08-18T10:44:52.668Z,1.07
2018-08-18T10:47:23.862Z,0.90
2018-08-18T10:50:10.345Z,1.50
2018-08-18T10:53:03.035Z,1.30
2018-08-18T10:55:32.862Z,1.57
2018-08-18T10:58:04.755Z,1.60
2018-08-18T11:00:34.610Z,1.00
2018-08-18T11:03:05.105Z,1.33
2018-08-18T11:05:34.227Z,1.43
2018-08-18T11:08:10.050Z,1.20
2018-08-18T11:10:41.590Z,1.93
2018-08-18T11:13:10.742Z,2.20
2018-08-18T11:15:39.863Z,1.90
2018-08-18T11:18:08.996Z,2.13
2018-08-18T11:20:38.099Z,2.20
2018-08-18T11:23:13.011Z,2.60
2018-08-18T11:25:48.646Z,3.10
2018-08-18T11:28:18.216Z,3.30
2018-08-18T11:30:50.205Z,3.80
2018-08-18T11:33:40.679Z,3.20
2018-08-18T11:36:10.774Z,2.70
2018-08-18T11:38:39.931Z,4.83
2018-08-18T11:41:09.159Z,3.87
2018-08-18T11:43:50.760Z,3.20
2018-08-18T11:46:19.896Z,3.20
2018-08-18T11:48:49.035Z,3.03
2018-08-18T11:51:18.129Z,3.83
2018-08-18T11:53:59.371Z,3.80
2018-08-18T11:56:28.508Z,5.07
2018-08-18T11:59:09.634Z,4.77
2018-08-18T12:01:40.014Z,4.17
2018-08-18T12:04:09.158Z,4.23
2018-08-18T12:06:45.723Z,3.67
2018-08-18T12:09:14.880Z,3.97
2018-08-18T12:11:43.971Z,3.53
2018-08-18T12:14:13.110Z,3.43
2018-08-18T12:16:42.201Z,3.50
2018-08-18T12:19:11.340Z,3.47
2018-08-18T12:21:45.613Z,3.17
2018-08-18T12:24:22.090Z,3.40
2018-08-18T12:27:11.133Z,4.40
2018-08-18T12:29:40.528Z,3.17
2018-08-18T12:32:14.466Z,3.80
2018-08-18T12:34:43.597Z,4.07
2018-08-18T12:37:14.499Z,3.57
2018-08-18T12:39:43.536Z,3.20
2018-08-18T12:42:16.733Z,3.50
2018-08-18T12:44:46.523Z,3.53
2018-08-18T12:47:15.629Z,3.70
2018-08-18T12:49:45.244Z,3.80
2018-08-18T12:52:14.377Z,2.80
2018-08-18T12:54:43.465Z,3.40
2018-08-18T12:57:12.590Z,3.50
2018-08-18T12:59:41.666Z,3.47
2018-08-18T13:02:10.775Z,3.47
2018-08-18T13:04:39.905Z,3.00
2018-08-18T13:07:09.027Z,2.70
2018-08-18T13:09:38.218Z,2.90
2018-08-18T13:12:07.339Z,2.90
2018-08-18T13:14:36.516Z,2.47
2018-08-18T13:17:06.008Z,3.00
2018-08-18T13:19:35.647Z,3.00
2018-08-18T13:22:04.825Z,3.20
2018-08-18T13:24:33.946Z,3.13
2018-08-18T13:27:03.564Z,2.53
2018-08-18T13:29:33.679Z,2.90
2018-08-18T13:32:02.821Z,2.70
2018-08-18T13:34:31.919Z,2.43
2018-08-18T13:37:01.022Z,3.03
2018-08-18T13:39:30.174Z,2.47
2018-08-18T13:42:04.250Z,2.67
2018-08-18T13:44:36.010Z,2.57
2018-08-18T13:47:05.243Z,2.70
2018-08-18T13:49:34.405Z,2.90
2018-08-18T13:52:03.522Z,3.00
2018-08-18T13:54:34.196Z,2.57
2018-08-18T13:57:03.330Z,2.80
2018-08-18T13:59:40.632Z,2.60
2018-08-18T14:02:10.878Z,2.67
2018-08-18T14:04:41.888Z,2.73
2018-08-18T14:07:11.209Z,2.97
2018-08-18T14:09:45.041Z,2.60
2018-08-18T14:12:14.825Z,3.00
2018-08-18T14:14:44.389Z,3.23
2018-08-18T14:17:14.280Z,2.83
2018-08-18T14:19:43.548Z,2.83
2018-08-18T14:22:12.789Z,2.67
2018-08-18T14:24:42.338Z,2.93
2018-08-18T14:27:17.388Z,2.60
2018-08-18T14:29:46.544Z,2.60
2018-08-18T14:32:21.296Z,2.90
2018-08-18T14:34:56.606Z,2.70
2018-08-18T14:37:25.782Z,3.33
2018-08-18T14:39:54.923Z,3.20
2018-08-18T14:42:24.167Z,3.23
2018-08-18T14:44:56.209Z,2.70
2018-08-18T14:47:25.477Z,2.53
2018-08-18T14:50:12.744Z,3.20
2018-08-18T14:52:48.652Z,2.33
2018-08-18T14:55:18.063Z,3.03
2018-08-18T14:57:52.526Z,2.60
2018-08-18T15:00:21.656Z,3.90
2018-08-18T15:02:50.793Z,2.73
2018-08-18T15:05:19.988Z,2.47
2018-08-18T15:07:53.296Z,2.73
2018-08-18T15:10:36.128Z,3.03
2018-08-18T15:13:06.050Z,3.13
2018-08-18T15:15:35.856Z,2.70
2018-08-18T15:18:06.379Z,2.80
2018-08-18T15:20:37.562Z,3.20
2018-08-18T15:23:07.901Z,4.00
2018-08-18T15:25:38.012Z,3.13
2018-08-18T15:28:08.473Z,3.03
2018-08-18T15:30:38.946Z,2.50
2018-08-18T15:33:09.900Z,2.90
2018-08-18T15:35:40.159Z,2.57
2018-08-18T15:38:10.441Z,3.00
2018-08-18T15:40:39.750Z,2.57
2018-08-18T15:43:08.924Z,2.47
2018-08-18T15:45:55.143Z,3.10
2018-08-18T15:48:24.285Z,2.77
2018-08-18T15:50:53.375Z,4.03
2018-08-18T15:53:48.065Z,3.93
2018-08-18T15:56:17.905Z,3.30
2018-08-18T15:58:48.220Z,19.77
2018-08-18T16:01:17.590Z,97.30
2018-08-18T16:03:46.846Z,36.53
2018-08-18T16:06:16.016Z,6.83
2018-08-18T16:08:45.146Z,4.10
2018-08-18T16:11:14.532Z,3.90
2018-08-18T16:13:43.803Z,7.00
2018-08-18T16:16:13.032Z,5.70
2018-08-18T16:18:42.212Z,3.20
2018-08-18T16:21:27.693Z,3.20
2018-08-18T16:23:56.896Z,3.37
2018-08-18T16:26:26.081Z,3.33
2018-08-18T16:28:55.187Z,3.90
2018-08-18T16:31:24.351Z,3.07
2018-08-18T16:34:00.242Z,2.90
2018-08-18T16:36:34.624Z,3.70
2018-08-18T16:39:03.829Z,3.23
2018-08-18T16:41:32.974Z,3.77
2018-08-18T16:44:02.138Z,2.87
2018-08-18T16:46:31.980Z,2.77
2018-08-18T16:49:01.427Z,2.57
2018-08-18T16:54:23.161Z,3.57
2018-08-18T16:56:54.966Z,2.87
2018-08-18T16:59:24.671Z,3.07
2018-08-18T17:01:55.672Z,3.13
2018-08-18T17:04:32.103Z,3.20
2018-08-18T17:07:03.681Z,3.20
2018-08-18T17:09:40.300Z,5.90
2018-08-18T17:12:21.034Z,11.20
2018-08-18T17:14:50.242Z,22.03
2018-08-18T17:17:19.383Z,15.33
2018-08-18T17:19:49.319Z,7.07
2018-08-18T17:22:18.474Z,5.40
2018-08-18T17:24:47.666Z,4.03
2018-08-18T17:27:16.809Z,4.30
2018-08-18T17:29:50.892Z,3.20
2018-08-18T17:32:20.035Z,3.67
2018-08-18T17:34:49.208Z,7.03
2018-08-18T17:37:18.393Z,5.50
2018-08-18T17:39:47.534Z,5.33
2018-08-18T17:42:16.598Z,4.50
2018-08-18T17:44:45.781Z,3.83
2018-08-18T17:47:14.906Z,4.00
2018-08-18T17:49:49.376Z,3.60
2018-08-18T17:52:18.470Z,2.93
2018-08-18T17:55:05.009Z,2.80
2018-08-18T17:57:34.598Z,2.93
2018-08-18T18:00:09.480Z,3.67
2018-08-18T18:02:44.227Z,4.10
2018-08-18T18:05:13.325Z,16.60
2018-08-18T18:07:42.619Z,12.47
2018-08-18T18:10:11.734Z,12.20
2018-08-18T18:12:40.903Z,20.73
2018-08-18T18:15:27.426Z,17.23
2018-08-18T18:17:56.579Z,18.40
2018-08-18T18:20:28.650Z,20.73
2018-08-18T18:22:57.844Z,14.30
2018-08-18T18:25:26.965Z,15.43
2018-08-18T18:27:56.169Z,12.03
2018-08-18T18:30:27.205Z,8.50
2018-08-18T18:32:57.466Z,6.77
2018-08-18T18:35:27.007Z,8.37
2018-08-18T18:38:01.112Z,11.50
2018-08-18T18:40:34.872Z,14.50
2018-08-18T18:43:04.069Z,12.20
2018-08-18T18:45:33.327Z,6.43
2018-08-18T18:48:02.541Z,6.30
2018-08-18T18:50:31.660Z,5.00
2018-08-18T18:53:00.801Z,4.40
2018-08-18T18:55:30.200Z,5.60
2018-08-18T18:58:10.476Z,5.90
2018-08-18T19:00:40.835Z,6.97
2018-08-18T19:03:10.807Z,6.17
2018-08-18T19:05:39.947Z,4.40
2018-08-18T19:08:15.604Z,5.33
2018-08-18T19:10:44.755Z,6.77
2018-08-18T19:13:14.038Z,4.83
2018-08-18T19:15:43.260Z,4.20
2018-08-18T19:18:13.129Z,3.40
2018-08-18T19:20:42.304Z,5.10
2018-08-18T19:23:15.588Z,4.20
2018-08-18T19:25:45.999Z,5.10
2018-08-18T19:28:20.422Z,5.30
2018-08-18T19:30:49.494Z,5.00
2018-08-18T19:33:19.182Z,4.83
2018-08-18T19:35:50.152Z,4.67
2018-08-18T19:38:20.407Z,4.87
2018-08-18T19:40:52.501Z,3.83
2018-08-18T19:43:22.928Z,4.67
2018-08-18T19:45:52.584Z,3.67
2018-08-18T19:48:23.126Z,3.80
2018-08-18T19:50:58.055Z,4.20
2018-08-18T19:53:30.382Z,4.50
2018-08-18T19:56:00.456Z,3.80
2018-08-18T19:58:30.295Z,3.90
2018-08-18T20:00:59.391Z,4.43
2018-08-18T20:03:28.516Z,4.17
2018-08-18T20:05:57.600Z,4.60
2018-08-18T20:08:27.875Z,5.40
2018-08-18T20:11:00.368Z,4.43
2018-08-18T20:13:30.862Z,4.10
2018-08-18T20:16:01.979Z,4.20
2018-08-18T20:18:32.444Z,4.00
2018-08-18T20:21:01.509Z,3.97
2018-08-18T20:23:30.682Z,3.10
2018-08-18T20:26:01.222Z,4.70
2018-08-18T20:28:30.334Z,4.00
2018-08-18T20:30:59.455Z,4.73
2018-08-18T20:33:28.568Z,3.80
2018-08-18T20:35:57.704Z,4.33
2018-08-18T20:38:30.980Z,3.80
2018-08-18T20:41:00.111Z,3.63
2018-08-18T20:43:29.302Z,4.23
2018-08-18T20:45:58.424Z,3.80
2018-08-18T20:48:27.680Z,4.40
2018-08-18T20:50:56.759Z,3.83
2018-08-18T20:53:27.353Z,4.13
2018-08-18T20:55:58.718Z,3.70
2018-08-18T20:58:28.323Z,3.70
2018-08-18T21:00:57.408Z,4.13
2018-08-18T21:03:40.837Z,3.70
2018-08-18T21:06:09.979Z,3.20
2018-08-18T21:08:39.083Z,3.00
2018-08-18T21:11:08.308Z,3.67
2018-08-18T21:13:38.097Z,3.67
2018-08-18T21:16:07.214Z,3.70
2018-08-18T21:18:36.357Z,4.10
2018-08-18T21:21:31.223Z,3.73
2018-08-18T21:24:00.386Z,4.23
2018-08-18T21:26:29.571Z,4.67
2018-08-18T21:28:58.975Z,4.50
2018-08-18T21:31:33.020Z,3.77
2018-08-18T21:34:03.273Z,4.10
2018-08-18T21:36:33.102Z,5.13
2018-08-18T21:39:06.607Z,4.93
2018-08-18T21:41:39.332Z,4.13
2018-08-18T21:44:11.451Z,3.67
2018-08-18T21:46:41.070Z,4.33
2018-08-18T21:49:11.011Z,4.10
2018-08-18T21:51:40.130Z,4.53
2018-08-18T21:54:09.304Z,3.83
2018-08-18T21:56:39.761Z,3.50
2018-08-18T21:59:10.616Z,3.87
2018-08-18T22:01:39.788Z,4.10
2018-08-18T22:04:09.630Z,3.80
2018-08-18T22:06:38.916Z,3.70
2018-08-18T22:09:22.541Z,3.50
2018-08-18T22:11:51.796Z,3.73
2018-08-18T22:14:20.913Z,3.57
2018-08-18T22:16:55.499Z,3.80
2018-08-18T22:19:24.830Z,3.77
2018-08-18T22:21:54.115Z,3.77
2018-08-18T22:24:23.222Z,3.53
2018-08-18T22:26:52.309Z,3.00
2018-08-18T22:29:26.106Z,3.77
2018-08-18T22:31:55.235Z,3.10
2018-08-18T22:34:24.397Z,3.57
2018-08-18T22:37:03.154Z,3.03
2018-08-18T22:39:32.358Z,3.57
2018-08-18T22:42:01.484Z,3.37
2018-08-18T22:44:30.674Z,2.97
2018-08-18T22:47:01.077Z,3.50
2018-08-18T22:49:30.231Z,3.20
2018-08-18T22:51:59.385Z,2.83
2018-08-18T22:54:28.524Z,2.70
2018-08-18T22:57:02.887Z,3.53
2018-08-18T22:59:32.403Z,2.73
2018-08-18T23:02:01.929Z,3.13
2018-08-18T23:04:35.945Z,3.07
2018-08-18T23:07:06.162Z,3.10
2018-08-18T23:09:35.297Z,2.77
2018-08-18T23:12:06.674Z,3.00
2018-08-18T23:14:36.879Z,2.50
2018-08-18T23:17:07.781Z,3.00
2018-08-18T23:19:36.986Z,2.70
2018-08-18T23:22:06.121Z,2.77
2018-08-18T23:24:39.088Z,2.60
2018-08-18T23:27:08.186Z,2.90
2018-08-18T23:29:37.307Z,3.20
2018-08-18T23:32:15.039Z,4.10
2018-08-18T23:34:44.142Z,3.40
2018-08-18T23:37:17.378Z,3.40
2018-08-18T23:39:46.540Z,2.97
2018-08-18T23:42:20.583Z,3.10
2018-08-18T23:44:49.780Z,3.60
2018-08-18T23:47:19.349Z,2.90
2018-08-18T23:49:48.758Z,2.90
2018-08-18T23:52:17.928Z,2.87
2018-08-18T23:54:47.128Z,2.80
2018-08-18T23:57:17.460Z,2.73
2018-08-18T23:59:47.129Z,2.57
